createdAt,value
2018-09-13T00:01:07.660Z,23.80
2018-09-13T00:03:36.090Z,23.80
2018-09-13T00:06:04.474Z,23.80
2018-09-13T00:08:32.852Z,23.80
2018-09-13T00:11:01.212Z,23.80
2018-09-13T00:13:29.557Z,23.80
2018-09-13T00:15:57.947Z,23.80
2018-09-13T00:18:26.528Z,23.80
2018-09-13T00:20:54.968Z,23.80
2018-09-13T00:23:23.332Z,23.80
2018-09-13T00:25:51.819Z,23.80
2018-09-13T00:28:20.198Z,23.80
2018-09-13T00:30:48.563Z,23.80
2018-09-13T00:33:17.077Z,23.80
2018-09-13T00:35:45.435Z,23.80
2018-09-13T00:38:13.968Z,23.80
2018-09-13T00:40:42.297Z,23.80
2018-09-13T00:43:10.905Z,23.80
2018-09-13T00:45:39.253Z,23.80
2018-09-13T00:48:07.743Z,23.80
2018-09-13T00:50:36.091Z,23.70
2018-09-13T00:53:04.465Z,23.70
2018-09-13T00:55:33.071Z,23.70
2018-09-13T00:58:01.563Z,23.70
2018-09-13T01:00:29.990Z,23.70
2018-09-13T01:02:58.473Z,23.70
2018-09-13T01:05:26.813Z,23.70
2018-09-13T01:07:55.325Z,23.70
2018-09-13T01:10:23.865Z,23.70
2018-09-13T01:12:52.208Z,23.70
2018-09-13T01:15:20.562Z,23.70
2018-09-13T01:17:48.994Z,23.70
2018-09-13T01:20:17.447Z,23.70
2018-09-13T01:22:45.957Z,23.70
2018-09-13T01:25:14.325Z,23.70
2018-09-13T01:27:42.683Z,23.70
2018-09-13T01:30:11.059Z,23.70
2018-09-13T01:32:39.536Z,23.70
2018-09-13T01:35:07.941Z,23.70
2018-09-13T01:37:36.309Z,23.60
2018-09-13T01:40:04.846Z,23.60
2018-09-13T01:42:33.339Z,23.60
2018-09-13T01:45:01.717Z,23.60
2018-09-13T01:47:30.048Z,23.60
2018-09-13T01:49:58.441Z,23.60
2018-09-13T01:52:26.783Z,23.60
2018-09-13T01:54:55.101Z,23.60
2018-09-13T01:57:23.539Z,23.60
2018-09-13T01:59:51.894Z,23.60
2018-09-13T02:02:20.264Z,23.60
2018-09-13T02:04:48.581Z,23.60
2018-09-13T02:07:16.940Z,23.60
2018-09-13T02:09:45.322Z,23.60
2018-09-13T02:12:13.686Z,23.60
2018-09-13T02:14:42.098Z,23.60
2018-09-13T02:17:10.486Z,23.60
2018-09-13T02:19:39.525Z,23.60
2018-09-13T02:22:07.848Z,23.60
2018-09-13T02:24:36.197Z,23.60
2018-09-13T02:27:04.708Z,23.60
2018-09-13T02:29:33.011Z,23.60
2018-09-13T02:32:01.352Z,23.60
2018-09-13T02:34:29.818Z,23.60
2018-09-13T02:36:58.299Z,23.60
2018-09-13T02:39:26.787Z,23.50
2018-09-13T02:41:55.620Z,23.60
2018-09-13T02:44:23.998Z,23.60
2018-09-13T02:46:52.377Z,23.60
2018-09-13T02:49:20.916Z,23.60
2018-09-13T02:51:49.242Z,23.60
2018-09-13T02:54:17.815Z,23.60
2018-09-13T02:56:46.172Z,23.60
2018-09-13T02:59:14.602Z,23.50
2018-09-13T03:01:42.937Z,23.50
2018-09-13T03:04:11.372Z,23.50
2018-09-13T03:06:39.959Z,23.50
2018-09-13T03:09:10.626Z,23.50
2018-09-13T03:11:39.583Z,23.50
2018-09-13T03:14:07.967Z,23.50
2018-09-13T03:16:36.310Z,23.50
2018-09-13T03:19:04.844Z,23.50
2018-09-13T03:21:33.215Z,23.50
2018-09-13T03:24:01.555Z,23.50
2018-09-13T03:26:30.031Z,23.50
2018-09-13T03:28:58.450Z,23.50
2018-09-13T03:31:26.942Z,23.50
2018-09-13T03:33:55.433Z,23.50
2018-09-13T03:36:23.755Z,23.50
2018-09-13T03:38:52.134Z,23.50
2018-09-13T03:41:20.578Z,23.50
2018-09-13T03:43:49.000Z,23.50
2018-09-13T03:46:17.391Z,23.50
2018-09-13T03:48:45.721Z,23.50
2018-09-13T03:51:14.069Z,23.50
2018-09-13T03:53:42.393Z,23.50
2018-09-13T03:56:10.778Z,23.50
2018-09-13T03:58:39.146Z,23.50
2018-09-13T04:01:07.728Z,23.50
2018-09-13T04:03:36.083Z,23.50
2018-09-13T04:06:04.429Z,23.50
2018-09-13T04:08:32.921Z,23.50
2018-09-13T04:11:01.297Z,23.50
2018-09-13T04:13:29.730Z,23.50
2018-09-13T04:15:58.177Z,23.50
2018-09-13T04:18:26.523Z,23.50
2018-09-13T04:20:54.895Z,23.50
2018-09-13T04:23:23.242Z,23.50
2018-09-13T04:25:52.520Z,23.50
2018-09-13T04:28:20.931Z,23.50
2018-09-13T04:30:49.383Z,23.50
2018-09-13T04:33:17.858Z,23.50
2018-09-13T04:35:46.307Z,23.50
2018-09-13T04:38:14.732Z,23.50
2018-09-13T04:40:43.105Z,23.50
2018-09-13T04:43:11.512Z,23.50
2018-09-13T04:45:39.844Z,23.50
2018-09-13T04:48:11.820Z,23.50
2018-09-13T04:50:40.166Z,23.40
2018-09-13T04:53:08.571Z,23.50
2018-09-13T04:55:37.322Z,23.50
2018-09-13T04:58:06.302Z,23.50
2018-09-13T05:00:34.671Z,23.50
2018-09-13T05:03:03.068Z,23.50
2018-09-13T05:05:31.468Z,23.50
2018-09-13T05:07:59.939Z,23.50
2018-09-13T05:10:28.325Z,23.50
2018-09-13T05:12:57.419Z,23.50
2018-09-13T05:15:25.671Z,23.50
2018-09-13T05:17:54.508Z,23.50
2018-09-13T05:20:23.011Z,23.50
2018-09-13T05:22:51.449Z,23.50
2018-09-13T05:25:19.909Z,23.50
2018-09-13T05:27:48.222Z,23.50
2018-09-13T05:30:16.781Z,23.50
2018-09-13T05:32:45.134Z,23.50
2018-09-13T05:35:13.708Z,23.50
2018-09-13T05:37:42.193Z,23.50
2018-09-13T05:40:10.709Z,23.50
2018-09-13T05:42:39.195Z,23.50
2018-09-13T05:45:07.559Z,23.50
2018-09-13T05:47:35.890Z,23.50
2018-09-13T05:50:04.715Z,23.50
2018-09-13T05:52:33.441Z,23.50
2018-09-13T05:55:01.807Z,23.50
2018-09-13T05:57:30.147Z,23.50
2018-09-13T05:59:58.504Z,23.50
2018-09-13T06:02:26.838Z,23.50
2018-09-13T06:04:55.203Z,23.50
2018-09-13T06:07:23.600Z,23.50
2018-09-13T06:09:52.168Z,23.50
2018-09-13T06:12:20.530Z,23.50
2018-09-13T06:14:48.945Z,23.60
2018-09-13T06:17:17.332Z,23.60
2018-09-13T06:19:45.732Z,23.60
2018-09-13T06:22:14.131Z,23.60
2018-09-13T06:24:42.554Z,23.60
2018-09-13T06:27:10.918Z,23.60
2018-09-13T06:29:39.360Z,23.50
2018-09-13T06:32:08.098Z,23.50
2018-09-13T06:34:36.458Z,23.50
2018-09-13T06:37:04.995Z,23.50
2018-09-13T06:39:33.436Z,23.50
2018-09-13T06:42:01.764Z,23.50
2018-09-13T06:44:30.078Z,23.50
2018-09-13T06:46:58.459Z,23.50
2018-09-13T06:49:26.819Z,23.50
2018-09-13T06:51:55.222Z,23.50
2018-09-13T06:54:23.561Z,23.50
2018-09-13T06:56:51.902Z,23.50
2018-09-13T06:59:20.254Z,23.50
2018-09-13T07:01:48.606Z,23.50
2018-09-13T07:04:16.976Z,23.40
2018-09-13T07:06:45.782Z,23.40
2018-09-13T07:09:15.410Z,23.40
2018-09-13T07:11:44.556Z,23.40
2018-09-13T07:14:12.917Z,23.30
2018-09-13T07:16:41.264Z,23.30
2018-09-13T07:19:09.632Z,23.30
2018-09-13T07:21:37.955Z,23.30
2018-09-13T07:24:06.723Z,23.30
2018-09-13T07:26:35.080Z,23.20
2018-09-13T07:29:03.625Z,23.20
2018-09-13T07:31:31.991Z,23.20
2018-09-13T07:34:00.359Z,23.10
2018-09-13T07:36:28.700Z,23.10
2018-09-13T07:38:57.569Z,23.10
2018-09-13T07:41:25.951Z,23.10
2018-09-13T07:43:54.387Z,23.10
2018-09-13T07:46:22.712Z,23.10
2018-09-13T07:48:51.111Z,23.10
2018-09-13T07:51:19.473Z,23.00
2018-09-13T07:53:47.853Z,23.00
2018-09-13T07:56:16.249Z,23.00
2018-09-13T07:58:44.601Z,23.00
2018-09-13T08:01:13.083Z,23.00
2018-09-13T08:03:41.582Z,23.00
2018-09-13T08:06:09.968Z,23.00
2018-09-13T08:08:38.517Z,23.00
2018-09-13T08:11:06.980Z,23.00
2018-09-13T08:13:35.345Z,23.00
2018-09-13T08:16:03.900Z,23.00
2018-09-13T08:18:32.237Z,23.00
2018-09-13T08:21:00.883Z,23.00
2018-09-13T08:23:29.250Z,23.10
2018-09-13T08:25:57.635Z,23.10
2018-09-13T08:28:25.982Z,23.10
2018-09-13T08:30:54.369Z,23.10
2018-09-13T08:33:22.981Z,23.10
2018-09-13T08:35:51.348Z,23.10
2018-09-13T08:38:19.732Z,23.10
2018-09-13T08:40:48.102Z,23.10
2018-09-13T08:43:16.559Z,23.10
2018-09-13T08:45:44.964Z,23.10
2018-09-13T08:48:13.558Z,23.10
2018-09-13T08:50:41.954Z,23.10
2018-09-13T08:53:10.308Z,23.10
2018-09-13T08:55:38.728Z,23.10
2018-09-13T08:58:07.185Z,23.10
2018-09-13T09:00:35.700Z,23.10
2018-09-13T09:03:04.092Z,23.10
2018-09-13T09:05:32.576Z,23.10
2018-09-13T09:08:00.924Z,23.10
2018-09-13T09:10:29.380Z,23.10
2018-09-13T09:12:57.841Z,23.10
2018-09-13T09:15:26.458Z,23.10
2018-09-13T09:17:54.815Z,23.10
2018-09-13T09:20:23.136Z,23.10
2018-09-13T09:22:51.567Z,23.10
2018-09-13T09:25:19.964Z,23.10
2018-09-13T09:27:48.317Z,23.10
2018-09-13T09:30:16.711Z,23.10
2018-09-13T09:32:45.251Z,23.10
2018-09-13T09:35:13.643Z,23.10
2018-09-13T09:37:42.079Z,23.20
2018-09-13T09:40:10.760Z,23.20
2018-09-13T09:42:39.322Z,23.20
2018-09-13T09:45:07.712Z,23.20
2018-09-13T09:47:36.057Z,23.20
2018-09-13T09:50:04.675Z,23.20
2018-09-13T09:52:33.088Z,23.20
2018-09-13T09:55:01.457Z,23.30
2018-09-13T09:57:29.812Z,23.20
2018-09-13T09:59:58.297Z,23.30
2018-09-13T10:02:26.611Z,23.30
2018-09-13T10:04:54.967Z,23.30
2018-09-13T10:07:23.329Z,23.30
2018-09-13T10:09:51.723Z,23.30
2018-09-13T10:12:20.069Z,23.30
2018-09-13T10:14:53.702Z,23.30
2018-09-13T10:17:27.453Z,23.30
2018-09-13T10:20:01.239Z,23.30
2018-09-13T10:22:34.974Z,23.30
2018-09-13T10:25:08.863Z,23.30
2018-09-13T10:27:42.606Z,23.30
2018-09-13T10:30:16.463Z,23.30
2018-09-13T10:32:50.352Z,23.30
2018-09-13T10:35:24.033Z,23.30
2018-09-13T10:37:57.766Z,23.30
2018-09-13T10:40:31.582Z,23.30
2018-09-13T10:44:03.099Z,23.30
2018-09-13T10:46:32.441Z,23.30
2018-09-13T10:49:06.204Z,23.30
2018-09-13T10:51:40.393Z,23.30
2018-09-13T10:54:13.893Z,23.30
2018-09-13T10:56:42.307Z,23.30
2018-09-13T10:59:10.781Z,23.30
2018-09-13T11:01:39.200Z,23.30
2018-09-13T11:04:07.598Z,23.30
2018-09-13T11:06:35.914Z,23.30
2018-09-13T11:09:05.952Z,23.30
2018-09-13T11:11:34.392Z,23.30
2018-09-13T11:14:10.014Z,23.30
2018-09-13T11:16:38.359Z,23.30
2018-09-13T11:19:06.758Z,23.30
2018-09-13T11:21:35.155Z,23.30
2018-09-13T11:24:03.512Z,23.30
2018-09-13T11:26:31.918Z,23.30
2018-09-13T11:29:00.324Z,23.30
2018-09-13T11:31:28.802Z,23.30
2018-09-13T11:33:57.275Z,23.30
2018-09-13T11:36:25.981Z,23.30
2018-09-13T11:38:54.520Z,23.30
2018-09-13T11:41:22.913Z,23.30
2018-09-13T11:43:51.249Z,23.30
2018-09-13T11:46:19.591Z,23.30
2018-09-13T11:48:47.958Z,23.30
2018-09-13T11:51:23.301Z,23.30
2018-09-13T11:53:51.688Z,23.40
2018-09-13T11:56:20.195Z,23.30
2018-09-13T11:58:48.836Z,23.40
2018-09-13T12:01:17.377Z,23.40
2018-09-13T12:03:45.783Z,23.40
2018-09-13T12:06:14.137Z,23.40
2018-09-13T12:08:42.577Z,23.40
2018-09-13T12:11:10.921Z,23.40
2018-09-13T12:13:39.287Z,23.40
2018-09-13T12:16:07.655Z,23.40
2018-09-13T12:18:36.439Z,23.40
2018-09-13T12:21:04.855Z,23.40
2018-09-13T12:23:33.225Z,23.40
2018-09-13T12:26:01.611Z,23.40
2018-09-13T12:28:30.385Z,23.40
2018-09-13T12:30:58.812Z,23.40
2018-09-13T12:33:27.275Z,23.40
2018-09-13T12:35:56.011Z,23.40
2018-09-13T12:38:24.563Z,23.40
2018-09-13T12:40:52.985Z,23.40
2018-09-13T12:43:21.480Z,23.40
2018-09-13T12:45:50.011Z,23.40
2018-09-13T12:48:18.645Z,23.40
2018-09-13T12:50:47.000Z,23.40
2018-09-13T12:53:15.345Z,23.40
2018-09-13T12:55:49.029Z,23.40
2018-09-13T12:58:17.582Z,23.40
2018-09-13T13:00:46.099Z,23.40
2018-09-13T13:03:15.319Z,23.40
2018-09-13T13:05:43.740Z,23.40
2018-09-13T13:08:12.225Z,23.40
2018-09-13T13:10:40.942Z,23.40
2018-09-13T13:13:09.317Z,23.40
2018-09-13T13:15:37.775Z,23.40
2018-09-13T13:18:06.360Z,23.40
2018-09-13T13:20:34.770Z,23.40
2018-09-13T13:23:03.252Z,23.40
2018-09-13T13:25:31.700Z,23.40
2018-09-13T13:28:00.103Z,23.40
2018-09-13T13:30:29.173Z,23.40
2018-09-13T13:32:57.608Z,23.40
2018-09-13T13:35:25.998Z,23.40
2018-09-13T13:37:54.755Z,23.40
2018-09-13T13:40:23.483Z,23.40
2018-09-13T13:42:51.896Z,23.40
2018-09-13T13:45:20.382Z,23.40
2018-09-13T13:47:48.879Z,23.40
2018-09-13T13:50:17.254Z,23.40
2018-09-13T13:52:45.602Z,23.40
2018-09-13T13:55:13.934Z,23.40
2018-09-13T13:57:42.284Z,23.40
2018-09-13T14:00:11.698Z,23.40
2018-09-13T14:02:40.136Z,23.40
2018-09-13T14:05:08.676Z,23.40
2018-09-13T14:07:37.084Z,23.40
2018-09-13T14:10:05.567Z,23.40
2018-09-13T14:12:34.060Z,23.40
2018-09-13T14:15:02.432Z,23.40
2018-09-13T14:17:30.782Z,23.40
2018-09-13T14:19:59.212Z,23.40
2018-09-13T14:22:27.606Z,23.40
2018-09-13T14:24:55.988Z,23.40
2018-09-13T14:27:24.848Z,23.40
2018-09-13T14:29:53.301Z,23.40
2018-09-13T14:32:21.685Z,23.50
2018-09-13T14:34:50.034Z,23.50
2018-09-13T14:37:18.408Z,23.50
2018-09-13T14:39:47.102Z,23.50
2018-09-13T14:42:15.524Z,23.40
2018-09-13T14:44:44.042Z,23.50
2018-09-13T14:47:12.434Z,23.50
2018-09-13T14:49:40.822Z,23.50
2018-09-13T14:52:09.222Z,23.50
2018-09-13T14:54:37.613Z,23.50
2018-09-13T14:57:06.067Z,23.50
2018-09-13T14:59:34.568Z,23.50
2018-09-13T15:02:03.102Z,23.50
2018-09-13T15:04:32.010Z,23.50
2018-09-13T15:07:00.614Z,23.50
2018-09-13T15:09:28.903Z,23.50
2018-09-13T15:11:57.268Z,23.50
2018-09-13T15:14:25.640Z,23.50
2018-09-13T15:16:54.003Z,23.50
2018-09-13T15:19:22.374Z,23.50
2018-09-13T15:21:50.773Z,23.50
2018-09-13T15:24:19.172Z,23.50
2018-09-13T15:26:47.633Z,23.50
2018-09-13T15:29:16.033Z,23.40
2018-09-13T15:31:44.420Z,23.50
2018-09-13T15:34:12.987Z,23.40
2018-09-13T15:36:41.418Z,23.40
2018-09-13T15:39:11.583Z,23.40
2018-09-13T15:41:40.117Z,23.40
2018-09-13T15:44:08.574Z,23.40
2018-09-13T15:46:37.061Z,23.40
2018-09-13T15:49:05.951Z,23.40
2018-09-13T15:51:34.396Z,23.40
2018-09-13T15:54:02.767Z,23.40
2018-09-13T15:56:31.144Z,23.40
2018-09-13T15:58:59.588Z,23.40
2018-09-13T16:01:28.162Z,23.40
2018-09-13T16:03:56.611Z,23.40
2018-09-13T16:06:25.040Z,23.40
2018-09-13T16:08:53.456Z,23.40
2018-09-13T16:11:21.832Z,23.40
2018-09-13T16:13:50.322Z,23.40
2018-09-13T16:16:18.664Z,23.40
2018-09-13T16:18:47.160Z,23.40
2018-09-13T16:21:15.553Z,23.40
2018-09-13T16:23:43.984Z,23.40
2018-09-13T16:26:12.397Z,23.40
2018-09-13T16:28:40.743Z,23.40
2018-09-13T16:31:09.164Z,23.40
2018-09-13T16:33:37.632Z,23.40
2018-09-13T16:36:07.690Z,23.40
2018-09-13T16:38:46.376Z,23.40
2018-09-13T16:41:20.162Z,23.40
2018-09-13T16:43:54.135Z,23.40
2018-09-13T16:46:27.966Z,23.40
2018-09-13T16:48:56.430Z,23.40
2018-09-13T16:51:24.976Z,23.40
2018-09-13T16:53:53.484Z,23.40
2018-09-13T16:56:22.141Z,23.40
2018-09-13T16:58:58.150Z,23.40
2018-09-13T17:01:26.673Z,23.40
2018-09-13T17:03:55.034Z,23.40
2018-09-13T17:06:23.447Z,23.30
2018-09-13T17:08:51.915Z,23.30
2018-09-13T17:11:20.368Z,23.30
2018-09-13T17:13:48.874Z,23.30
2018-09-13T17:16:17.246Z,23.30
2018-09-13T17:18:45.715Z,23.30
2018-09-13T17:21:14.102Z,23.30
2018-09-13T17:23:42.546Z,23.30
2018-09-13T17:26:12.974Z,23.30
2018-09-13T17:28:41.361Z,23.30
2018-09-13T17:31:09.759Z,23.30
2018-09-13T17:33:38.272Z,23.30
2018-09-13T17:36:06.731Z,23.30
2018-09-13T17:38:35.298Z,23.40
2018-09-13T17:41:03.749Z,23.40
2018-09-13T17:43:32.148Z,23.40
2018-09-13T17:46:00.664Z,23.40
2018-09-13T17:48:29.082Z,23.40
2018-09-13T17:50:57.460Z,23.40
2018-09-13T17:53:25.837Z,23.40
2018-09-13T17:55:54.364Z,23.40
2018-09-13T17:58:23.000Z,23.40
2018-09-13T18:00:51.350Z,23.40
2018-09-13T18:03:19.808Z,23.30
2018-09-13T18:05:48.131Z,23.30
2018-09-13T18:08:16.485Z,23.30
2018-09-13T18:10:45.025Z,23.30
2018-09-13T18:13:13.502Z,23.30
2018-09-13T18:15:41.854Z,23.30
2018-09-13T18:18:10.314Z,23.20
2018-09-13T18:20:38.682Z,23.20
2018-09-13T18:23:08.468Z,23.20
2018-09-13T18:25:36.898Z,23.20
2018-09-13T18:28:05.298Z,23.20
2018-09-13T18:30:34.114Z,23.10
2018-09-13T18:33:03.080Z,23.20
2018-09-13T18:35:31.492Z,23.20
2018-09-13T18:37:59.868Z,23.10
2018-09-13T18:40:28.248Z,23.10
2018-09-13T18:42:56.730Z,23.10
2018-09-13T18:45:25.425Z,23.10
2018-09-13T18:47:54.563Z,23.10
2018-09-13T18:50:23.007Z,23.10
2018-09-13T18:52:51.530Z,23.10
2018-09-13T18:55:20.541Z,23.10
2018-09-13T18:57:49.797Z,23.10
2018-09-13T19:00:18.210Z,23.10
2018-09-13T19:02:46.593Z,23.10
2018-09-13T19:05:15.095Z,23.20
2018-09-13T19:07:43.638Z,23.20
2018-09-13T19:10:12.074Z,23.20
2018-09-13T19:12:40.648Z,23.20
2018-09-13T19:15:09.840Z,23.30
2018-09-13T19:17:38.380Z,23.30
2018-09-13T19:20:06.788Z,23.30
2018-09-13T19:22:35.252Z,23.30
2018-09-13T19:25:03.799Z,23.30
2018-09-13T19:27:32.225Z,23.30
2018-09-13T19:30:00.628Z,23.30
2018-09-13T19:32:29.709Z,23.30
2018-09-13T19:34:58.293Z,23.30
2018-09-13T19:37:27.100Z,23.30
2018-09-13T19:39:55.738Z,23.30
2018-09-13T19:42:24.186Z,23.30
2018-09-13T19:44:53.528Z,23.30
2018-09-13T19:47:22.016Z,23.20
2018-09-13T19:49:50.420Z,23.20
2018-09-13T19:52:19.231Z,23.20
2018-09-13T19:54:47.670Z,23.10
2018-09-13T19:57:16.122Z,23.10
2018-09-13T19:59:44.804Z,23.10
2018-09-13T20:02:13.303Z,23.10
2018-09-13T20:04:41.814Z,23.00
2018-09-13T20:07:10.204Z,23.00
2018-09-13T20:09:38.726Z,23.00
2018-09-13T20:12:07.323Z,23.00
2018-09-13T20:14:40.525Z,22.90
2018-09-13T20:17:08.925Z,22.90
2018-09-13T20:19:37.377Z,22.90
2018-09-13T20:24:46.534Z,22.90
2018-09-13T20:27:14.843Z,22.90
2018-09-13T20:29:43.227Z,22.90
2018-09-13T20:32:11.600Z,22.90
2018-09-13T20:34:40.191Z,22.90
2018-09-13T20:37:08.736Z,23.00
2018-09-13T20:39:37.305Z,23.00
2018-09-13T20:42:08.416Z,23.00
2018-09-13T20:44:37.100Z,23.00
2018-09-13T20:47:05.723Z,23.00
2018-09-13T20:49:35.084Z,23.00
2018-09-13T20:52:03.509Z,23.00
2018-09-13T20:54:32.063Z,23.00
2018-09-13T20:57:00.703Z,23.00
2018-09-13T20:59:29.202Z,23.00
2018-09-13T21:01:57.664Z,23.00
2018-09-13T21:04:26.179Z,23.00
2018-09-13T21:06:54.614Z,23.00
2018-09-13T21:09:23.332Z,23.00
2018-09-13T21:11:52.174Z,23.00
2018-09-13T21:14:20.622Z,23.00
2018-09-13T21:16:49.133Z,23.00
2018-09-13T21:19:18.383Z,23.00
2018-09-13T21:24:21.851Z,23.00
2018-09-13T21:26:50.441Z,23.00
2018-09-13T21:29:19.109Z,23.00
2018-09-13T21:31:49.617Z,23.00
2018-09-13T21:34:19.450Z,23.00
2018-09-13T21:36:47.827Z,23.00
2018-09-13T21:39:16.245Z,23.00
2018-09-13T21:41:44.821Z,23.00
2018-09-13T21:44:13.223Z,23.00
2018-09-13T21:46:42.351Z,23.00
2018-09-13T21:49:10.797Z,23.00
2018-09-13T21:51:39.232Z,23.00
2018-09-13T21:54:07.631Z,23.00
2018-09-13T21:56:35.993Z,23.00
2018-09-13T21:59:04.380Z,23.00
2018-09-13T22:01:33.019Z,23.00
2018-09-13T22:04:01.407Z,23.00
2018-09-13T22:06:29.863Z,22.90
2018-09-13T22:08:58.262Z,22.90
2018-09-13T22:11:27.267Z,22.90
2018-09-13T22:13:55.625Z,22.90
2018-09-13T22:16:23.973Z,22.90
2018-09-13T22:18:52.387Z,22.90
2018-09-13T22:21:20.788Z,22.90
2018-09-13T22:23:49.179Z,22.90
2018-09-13T22:26:17.624Z,22.90
2018-09-13T22:28:46.025Z,22.90
2018-09-13T22:31:14.613Z,22.90
2018-09-13T22:33:43.309Z,22.90
2018-09-13T22:36:11.755Z,22.90
2018-09-13T22:38:40.089Z,22.90
2018-09-13T22:41:08.393Z,23.00
2018-09-13T22:43:42.098Z,22.90
2018-09-13T22:46:10.513Z,22.90
2018-09-13T22:48:38.917Z,22.90
2018-09-13T22:51:07.293Z,22.90
2018-09-13T22:53:35.756Z,22.90
2018-09-13T22:56:04.165Z,23.00
2018-09-13T22:58:32.605Z,23.00
2018-09-13T23:01:01.124Z,23.00
2018-09-13T23:03:29.530Z,23.00
2018-09-13T23:05:57.884Z,23.00
2018-09-13T23:08:26.276Z,23.00
2018-09-13T23:10:54.679Z,23.00
2018-09-13T23:13:23.076Z,23.00
2018-09-13T23:15:51.514Z,23.00
2018-09-13T23:18:19.814Z,23.00
2018-09-13T23:20:48.330Z,23.00
2018-09-13T23:23:16.699Z,23.00
2018-09-13T23:25:45.069Z,23.00
2018-09-13T23:28:13.494Z,23.00
2018-09-13T23:30:41.874Z,23.00
2018-09-13T23:33:10.229Z,23.00
2018-09-13T23:35:38.676Z,23.00
2018-09-13T23:38:07.353Z,23.00
2018-09-13T23:40:35.854Z,23.00
2018-09-13T23:43:04.225Z,23.00
2018-09-13T23:45:32.574Z,23.00
2018-09-13T23:48:01.144Z,23.00
2018-09-13T23:50:29.504Z,23.00
2018-09-13T23:52:57.932Z,23.00
2018-09-13T23:55:26.309Z,23.00
2018-09-13T23:57:54.657Z,23.00
